Latest Weather Observations for Norseman Airport

IDW60801

Issued at 11:54 am WST Wednesday 14 April 2021 (issued every 10 minutes, with the page automatically refreshed every 10 minutes)

About weather observations | Map of weather stations | Latest weather observations for WA | Other Formats
Station Details ID: 012009 Name: NORSEMAN AERO Lat: -32.21 Lon: 121.75 Height: 262.5 m
Data from the previous 72 hours. | See also: Recent months at Norseman Airport
Date/Time
WST
Temp
°C
App
Temp
°C
Dew
Point
°C
Rel
Hum
%
Delta-T
°C
Wind Press
QNH
hPa
Press
MSL
hPa
Rain since
9am
mm
Dir  Spd
km/h
Gust
km/h
Spd
kts
Gust
kts
14/11:30am 17.9 16.6 9.8 59 4.3 WSW 7 15 4 8 1024.9 1024.3 0.0
14/11:00am 17.3 15.6 8.2 55 4.7 S 7 15 4 8 1025.2 1024.6 0.0
14/10:30am 16.5 13.9 7.7 56 4.5 SSW 11 17 6 9 1025.5 1024.9 0.0
14/10:00am 15.8 14.7 10.1 69 3.0 W 6 11 3 6 1025.8 1025.2 0.0
14/09:30am 15.0 13.3 10.0 72 2.6 SW 9 17 5 9 1026.0 1025.4 0.0
14/09:00am 14.5 13.7 11.8 84 1.5 W 7 9 4 5 1025.9 1025.3 0.0
14/08:30am 13.1 12.9 13.1 100 0.0 W 6 9 3 5 1025.9 1025.3 0.0
14/08:00am 11.3 11.7 11.3 100 0.0 CALM 0 0 0 0 1025.7 1025.1 0.0
14/07:30am 10.4 10.6 10.4 100 0.0 CALM 0 0 0 0 1025.4 1024.8 0.0
14/07:00am 8.4 8.0 8.4 100 0.0 CALM 0 0 0 0 1025.2 1024.6 0.0
14/06:30am 8.9 8.7 8.9 100 0.0 CALM 0 0 0 0 1024.9 1024.3 0.0
14/06:00am 8.6 8.3 8.6 100 0.0 CALM 0 0 0 0 1024.8 1024.1 0.0
14/05:30am 7.9 7.4 7.9 100 0.0 CALM 0 0 0 0 1024.8 1024.1 0.0
14/05:00am 7.7 7.2 7.7 100 0.0 CALM 0 0 0 0 1024.5 1023.8 0.0
14/04:30am 6.8 6.1 6.8 100 0.0 CALM 0 0 0 0 1024.3 1023.6 0.0
14/04:00am 5.8 4.8 5.8 100 0.0 CALM 0 0 0 0 1024.2 1023.5 0.0
14/03:30am 5.8 4.8 5.8 100 0.0 CALM 0 0 0 0 1024.2 1023.5 0.0
14/03:00am 6.1 5.2 6.1 100 0.0 CALM 0 0 0 0 1024.2 1023.5 0.0
14/02:30am 6.6 5.8 6.6 100 0.0 CALM 0 0 0 0 1024.2 1023.5 0.0
14/02:00am 6.7 5.9 6.7 100 0.0 CALM 0 0 0 0 1024.2 1023.5 0.0
14/01:30am 7.4 6.8 7.4 100 0.0 CALM 0 0 0 0 1024.0 1023.3 0.0
14/01:00am 7.4 6.8 7.4 100 0.0 CALM 0 0 0 0 1023.9 1023.2 0.0
14/12:30am 7.7 7.1 7.6 99 0.0 CALM 0 0 0 0 1023.8 1023.1 0.0
14/12:00am 8.1 7.6 8.0 99 0.0 CALM 0 0 0 0 1023.7 1023.0 0.0
 
Date/Time
WST
Temp
°C
App
Temp
°C
Dew
Point
°C
Rel
Hum
%
Delta-T
°C
Wind Press
QNH
hPa
Press
MSL
hPa
Rain since
9am
mm
Dir  Spd
km/h
Gust
km/h
Spd
kts
Gust
kts
13/11:30pm 8.4 8.0 8.3 99 0.0 CALM 0 0 0 0 1023.6 1022.9 0.0
13/11:00pm 9.0 8.7 8.7 98 0.1 CALM 0 0 0 0 1023.4 1022.7 0.0
13/10:30pm 9.8 9.6 9.0 95 0.4 CALM 0 0 0 0 1023.5 1022.8 0.0
13/10:00pm 10.5 10.2 8.8 89 0.8 CALM 0 0 0 0 1023.5 1022.8 0.0
13/09:30pm 11.9 10.3 8.9 82 1.5 S 7 9 4 5 1023.4 1022.7 0.0
13/09:00pm 12.9 10.3 9.2 78 1.9 S 13 20 7 11 1023.2 1022.5 0.0
13/08:30pm 13.1 10.9 9.4 78 1.9 SSE 11 17 6 9 1022.8 1022.2 0.0
13/08:00pm 13.8 11.6 9.3 74 2.3 S 11 15 6 8 1022.4 1021.8 0.0
13/07:30pm 14.4 11.8 9.4 72 2.6 S 13 19 7 10 1021.9 1021.3 0.0
13/07:00pm 15.3 12.3 9.4 68 3.1 S 15 24 8 13 1021.6 1021.0 0.0
13/06:30pm 16.2 13.6 9.2 63 3.7 SSE 13 19 7 10 1020.9 1020.2 0.0
13/06:00pm 15.4 13.1 8.9 65 3.4 SW 11 15 6 8 1020.4 1019.7 0.0
13/05:30pm 16.5 11.9 8.0 57 4.4 SW 22 30 12 16 1020.0 1019.3 0.0
13/05:00pm 16.9 12.7 8.3 57 4.4 WSW 20 28 11 15 1019.6 1018.9 0.0
13/04:30pm 17.2 13.9 9.6 61 4.0 SW 17 22 9 12 1019.3 1018.6 0.0
13/04:00pm 17.0 11.8 8.9 59 4.2 SW 26 30 14 16 1018.9 1018.3 0.0
13/03:30pm 18.3 12.8 9.1 55 4.9 SW 28 35 15 19 1018.7 1018.1 0.0
13/03:00pm 18.4 13.7 9.2 55 4.9 SW 24 32 13 17 1018.5 1017.9 0.0
13/02:30pm 18.7 13.0 8.4 51 5.4 WSW 28 37 15 20 1018.2 1017.5 0.0
13/02:00pm 17.6 12.7 8.5 55 4.7 SW 24 35 13 19 1018.0 1017.3 0.0
13/01:30pm 18.1 13.7 8.9 55 4.8 SW 22 35 12 19 1017.9 1017.2 0.0
13/01:00pm 17.4 11.5 7.5 52 5.0 WSW 28 33 15 18 1018.1 1017.4 0.0
13/12:30pm 17.2 11.3 7.5 53 4.9 WSW 28 35 15 19 1018.2 1017.5 0.0
13/12:00pm 17.6 12.4 8.7 56 4.6 WSW 26 41 14 22 1018.3 1017.7 0.0
13/11:30am 17.1 11.0 8.3 56 4.6 WSW 30 37 16 20 1018.4 1017.8 0.0
13/11:00am 16.3 10.5 7.8 57 4.3 SW 28 39 15 21 1018.4 1017.8 0.0
13/10:30am 16.4 11.3 9.3 63 3.7 WSW 26 35 14 19 1018.4 1017.8 0.0
13/10:00am 15.6 9.9 8.4 62 3.7 SW 28 35 15 19 1018.3 1017.7 0.0
13/09:30am 15.1 8.8 8.8 66 3.2 SW 32 39 17 21 1018.2 1017.5 0.0
13/09:00am 14.5 8.8 8.2 66 3.2 WSW 28 39 15 21 1018.0 1017.3 10.0
13/08:30am 14.0 7.8 7.8 66 3.1 WSW 30 35 16 19 1017.7 1017.0 10.0
13/08:00am 13.4 7.5 7.6 68 2.9 WSW 28 37 15 20 1017.4 1016.7 10.0
13/07:30am 12.6 8.1 7.1 69 2.7 WSW 20 28 11 15 1017.0 1016.3 10.0
13/07:00am 10.9 8.8 8.3 84 1.3 WSW 9 17 5 9 1016.4 1015.7 10.0
13/06:30am 9.8 7.1 7.4 85 1.2 WSW 11 11 6 6 1015.8 1015.1 10.0
13/06:00am 10.6 7.0 6.9 78 1.8 SW 15 19 8 10 1015.5 1014.8 10.0
13/05:30am 11.3 7.5 7.4 77 1.9 SW 17 24 9 13 1015.0 1014.4 10.0
13/05:00am 12.0 8.3 7.9 76 2.0 SW 17 33 9 18 1014.4 1013.7 10.0
13/04:30am 11.9 8.7 8.6 80 1.7 SW 15 20 8 11 1014.0 1013.3 10.0
13/04:00am 12.4 8.5 8.7 78 1.9 SW 19 26 10 14 1013.5 1012.8 10.0
13/03:30am 12.6 8.9 9.4 81 1.6 SW 19 26 10 14 1013.8 1013.1 10.0
13/03:00am 12.4 9.9 11.0 91 0.7 WSW 15 19 8 10 1013.4 1012.7 10.0
13/02:30am 12.5 9.3 11.1 91 0.7 SW 19 22 10 12 1013.1 1012.4 10.0
13/02:00am 12.9 9.7 11.8 93 0.6 SW 20 26 11 14 1013.0 1012.3 10.0
13/01:30am 13.3 9.6 12.8 97 0.3 SW 24 32 13 17 1012.6 1011.9 10.0
13/01:00am 13.5 10.8 13.5 100 0.0 SW 20 28 11 15 1012.3 1011.6 10.0
13/12:30am 13.6 9.8 13.6 100 0.0 SW 26 35 14 19 1012.2 1011.5 10.0
13/12:00am 14.1 11.5 13.9 99 0.1 SW 20 26 11 14 1011.7 1011.0 9.6
 
Date/Time
WST
Temp
°C
App
Temp
°C
Dew
Point
°C
Rel
Hum
%
Delta-T
°C
Wind Press
QNH
hPa
Press
MSL
hPa
Rain since
9am
mm
Dir  Spd
km/h
Gust
km/h
Spd
kts
Gust
kts
12/11:30pm 14.6 9.9 13.1 91 0.8 SW 30 39 16 21 1011.4 1010.6 9.6
12/11:00pm 15.0 12.6 13.7 92 0.7 SSW 19 30 10 16 1011.0 1010.3 9.6
12/10:30pm 15.2 11.3 13.2 88 1.1 SSW 26 39 14 21 1010.8 1010.1 9.6
12/10:04pm 15.6 11.3 13.1 85 1.4 SSW 28 46 15 25 1010.7 1010.0 9.6
12/10:00pm 15.7 11.0 13.2 85 1.4 SSW 30 41 16 22 1010.8 1010.1 9.6
12/09:30pm 15.7 11.2 13.9 89 1.0 SSW 30 37 16 20 1010.6 1009.9 9.6
12/09:00pm 16.1 12.1 14.1 88 1.2 SSW 28 39 15 21 1010.3 1009.6 9.6
12/08:30pm 16.8 12.2 15.2 90 0.9 SSW 33 50 18 27 1009.3 1008.6 9.6
12/08:25pm 16.9 13.6 16.1 95 0.5 SSW 28 46 15 25 1009.2 1008.5 9.6
12/08:00pm 16.9 13.9 16.7 99 0.1 SSW 28 41 15 22 1008.8 1008.1 9.6
12/07:30pm 17.4 13.6 16.8 96 0.4 SSW 32 39 17 21 1008.0 1007.2 9.6
12/07:10pm 19.4 16.6 16.4 83 1.8 SW 26 44 14 24 1007.5 1006.7 9.6
12/07:00pm 19.6 18.6 16.6 83 1.8 SW 17 22 9 12 1007.0 1006.3 9.6
12/06:30pm 19.7 18.3 16.5 82 1.9 WSW 19 22 10 12 1006.3 1005.6 9.6
12/06:00pm 20.0 17.9 16.2 79 2.3 SW 22 28 12 15 1005.9 1005.2 9.6
12/05:30pm 20.2 17.8 16.4 79 2.3 WSW 24 32 13 17 1005.3 1004.6 9.6
12/05:00pm 20.6 17.7 16.2 76 2.7 WSW 26 30 14 16 1004.8 1004.0 9.6
12/04:30pm 20.6 19.1 16.8 79 2.3 WSW 20 32 11 17 1004.3 1003.5 9.6
12/04:00pm 20.1 19.1 17.9 87 1.4 W 20 28 11 15 1004.2 1003.4 9.6
12/03:30pm 20.5 18.3 17.9 85 1.6 WSW 26 33 14 18 1003.8 1003.0 9.6
12/03:00pm 21.0 17.2 18.0 83 1.9 WSW 35 48 19 26 1003.2 1002.4 9.6
12/02:30pm 20.6 16.0 17.2 81 2.1 WSW 37 46 20 25 1002.5 1001.8 9.6
12/02:00pm 21.1 16.6 18.3 84 1.8 W 39 46 21 25 1002.0 1001.3 9.6
12/01:30pm 20.9 18.9 20.7 99 0.1 W 32 41 17 22 1001.4 1000.6 9.4
12/01:00pm 20.3 17.9 20.3 100 0.0 W 33 43 18 23 1001.1 1000.3 9.4
12/12:30pm 21.7 19.6 21.7 100 0.0 W 35 46 19 25 1000.3 999.5 8.8
12/12:21pm 21.6 17.9 21.6 100 0.0 W 43 61 23 33 1000.1 999.3 8.6
12/12:00pm 22.6 21.0 22.6 100 0.0 WNW 35 50 19 27 999.5 998.7 7.2
12/11:30am 22.9 21.5 22.9 100 0.0 WNW 35 46 19 25 999.3 998.5 3.8
12/11:18am 23.0 20.5 23.0 100 0.0 WNW 41 56 22 30 999.0 998.3 2.4
12/11:00am 24.1 21.7 23.9 99 0.1 NW 43 61 23 33 998.8 998.1 2.2
12/10:55am 23.7 22.3 23.7 100 0.0 NW 37 61 20 33 998.8 998.1 2.2
12/10:30am 22.8 21.9 22.8 100 0.0 NW 32 46 17 25 998.7 998.0 2.0
12/10:00am 22.1 20.6 22.1 100 0.0 NW 33 46 18 25 998.5 997.8 0.8
12/09:30am 20.8 17.5 20.8 100 0.0 NNW 39 54 21 29 998.1 997.3 0.2
12/09:00am 17.1 12.5 17.1 100 0.0 N 37 46 20 25 998.0 997.2 21.4
12/08:30am 15.8 9.5 15.6 99 0.1 N 43 52 23 28 998.5 997.8 21.0
12/08:00am 15.1 7.6 15.1 100 0.0 N 48 69 26 37 998.6 997.9 20.2
12/07:32am 15.1 6.4 14.9 99 0.1 NNE 54 72 29 39 998.7 998.0 18.4
12/07:30am 14.9 5.7 14.6 98 0.2 NNE 56 72 30 39 998.3 997.5 18.2
12/07:02am 15.1 7.3 13.1 88 1.1 NNE 46 65 25 35 997.9 997.1 14.0
12/07:00am 15.2 7.8 13.2 88 1.1 NNE 44 61 24 33 997.7 996.9 13.8
12/06:30am 16.0 9.7 12.4 79 2.0 NNE 37 50 20 27 998.9 998.2 10.0
12/06:00am 16.7 11.1 11.6 72 2.8 NE 32 43 17 23 999.5 998.7 8.0
12/05:30am 17.1 12.6 11.4 69 3.1 NE 26 32 14 17 1001.0 1000.2 7.4
12/05:00am 19.1 13.7 9.6 54 5.1 NNE 28 33 15 18 1001.8 1001.1 7.0
12/04:30am 18.6 13.7 9.9 57 4.7 NE 26 35 14 19 1001.9 1001.2 7.0
12/04:00am 18.8 13.9 9.8 56 4.9 NE 26 32 14 17 1003.0 1002.3 7.0
12/03:30am 18.6 13.7 9.9 57 4.7 NNE 26 35 14 19 1003.5 1002.7 7.0
12/03:00am 18.8 13.5 9.8 56 4.9 NNE 28 35 15 19 1004.6 1003.8 7.0
12/02:30am 18.7 13.4 10.0 57 4.7 NNE 28 37 15 20 1005.2 1004.5 7.0
12/02:00am 18.6 13.4 10.2 58 4.6 NNE 28 35 15 19 1006.4 1005.7 7.0
12/01:30am 18.4 13.6 10.3 59 4.4 NNE 26 35 14 19 1006.6 1005.9 7.0
12/01:00am 18.4 12.5 10.3 59 4.4 NE 32 46 17 25 1006.8 1006.1 7.0
12/12:30am 17.9 12.5 10.8 63 3.9 NE 30 43 16 23 1007.7 1006.9 7.0
12/12:00am 17.4 12.8 11.2 67 3.4 NE 26 35 14 19 1008.2 1007.4 7.0
 
Date/Time
WST
Temp
°C
App
Temp
°C
Dew
Point
°C
Rel
Hum
%
Delta-T
°C
Wind Press
QNH
hPa
Press
MSL
hPa
Rain since
9am
mm
Dir  Spd
km/h
Gust
km/h
Spd
kts
Gust
kts
11/11:30pm 17.5 11.6 11.3 67 3.4 NE 33 46 18 25 1009.0 1008.3 7.0
11/11:00pm 16.8 12.8 11.7 72 2.8 NNE 24 30 13 16 1010.5 1009.8 7.0
11/10:30pm 16.7 13.5 12.0 74 2.6 NNE 20 28 11 15 1011.3 1010.5 7.0
11/10:00pm 16.1 12.7 12.5 79 2.0 NE 22 30 12 16 1011.5 1010.7 7.0
11/09:30pm 16.3 12.2 12.7 79 2.0 NE 26 39 14 21 1012.2 1011.5 6.8
11/09:00pm 15.8 10.9 12.7 82 1.7 ENE 30 43 16 23 1011.8 1011.1 6.8
11/08:30pm 15.5 11.9 13.2 86 1.3 ENE 24 35 13 19 1012.1 1011.4 6.8
11/08:00pm 15.1 12.4 13.5 90 0.9 ENE 20 28 11 15 1012.6 1011.9 6.8
11/07:30pm 15.0 12.1 13.9 93 0.6 E 22 35 12 19 1013.1 1012.4 6.8
11/07:00pm 14.8 12.3 14.0 95 0.5 ENE 20 35 11 19 1013.9 1013.2 6.8
11/06:30pm 15.0 13.0 14.0 94 0.6 E 17 24 9 13 1014.8 1014.1 6.2
11/06:00pm 15.1 14.2 13.8 92 0.7 ENE 11 15 6 8 1015.2 1014.5 5.4
11/05:30pm 15.6 13.3 12.9 84 1.5 NE 17 20 9 11 1015.0 1014.4 3.4
11/05:00pm 17.3 13.7 12.0 71 2.9 NNE 22 30 12 16 1014.6 1013.9 0.2
11/04:30pm 19.2 16.2 10.7 58 4.7 NE 17 24 9 13 1014.1 1013.4 0.0
11/04:00pm 20.0 15.8 9.9 52 5.5 NNE 22 35 12 19 1013.8 1013.1 0.0
11/03:30pm 20.5 14.6 9.1 48 6.1 NNE 30 39 16 21 1014.1 1013.4 0.0
11/03:00pm 20.2 14.9 9.7 51 5.7 NE 28 37 15 20 1014.8 1014.1 0.0
11/02:30pm 20.0 14.2 9.6 51 5.6 NNE 30 39 16 21 1015.3 1014.6 0.0
11/02:00pm 20.1 14.5 10.2 53 5.4 NNE 30 41 16 22 1015.7 1015.0 0.0
11/01:30pm 19.3 14.2 10.6 57 4.8 NE 28 35 15 19 1016.2 1015.5 0.0
11/01:00pm 18.8 14.7 11.4 62 4.1 NNE 24 32 13 17 1017.2 1016.5 0.0
11/12:30pm 19.4 13.9 10.7 57 4.8 NNE 30 41 16 22 1017.7 1017.0 0.0
11/12:00pm 19.4 14.4 9.6 53 5.3 NNE 26 35 14 19 1018.6 1018.0 0.0

Other formats

Comma delimited format used in spreadsheet applications
http://www.bom.gov.au/fwo/IDW60801/IDW60801.95642.axf

JavaScript Object Notation format (JSON) in row-major order
http://www.bom.gov.au/fwo/IDW60801/IDW60801.95642.json

Data quality

Most of these data are generated automatically and are frequently updated. Quality checks on data are not normally performed. It is possible for incorrect values to appear. Refer to information at About Latest Weather Observations and please check the disclaimer before using these data.